Freeport, Illinois
Current Conditions -  °F | °C
As of 3:15 PM on Friday 24 Oct 2014 (Local Time) from KFEP Reporting Station
Scattered Clouds Scattered Clouds  
Wind Chill: 60°   Ceiling: Unl
Heat Index: 60°   Visibility: 10mi
Dew Point: 50°   Wind: 7mph
Humidity: 70%   Direction: 190°S
Pressure: 29.99"   Gusts: NA
Location:  42.3°N, 89.62°W
Report Text: KFEP 242015Z AUTO 19006KT 10SM SCT090 16/10 A2999 RMK AO2 T01560101
Loading
Personal Weather Stations






























Interactive Weather Map
Tropical Storm Tracking
New forecast layout! Learn more

10-Day Weather Forecast

Advertisements
Track Severe Weather on mobile